sensor_id;sensor_type;location;lat;lon;timestamp;pressure;altitude;pressure_sealevel;temperature;humidity
64713;BME280;51140;45.340;5.980;2023-04-27T00:00:47;98247.63;;;11.32;100.00
64713;BME280;51140;45.340;5.980;2023-04-27T00:03:13;98247.16;;;11.08;100.00
64713;BME280;51140;45.340;5.980;2023-04-27T00:05:38;98246.94;;;10.78;100.00
64713;BME280;51140;45.340;5.980;2023-04-27T00:08:04;98244.44;;;10.59;100.00
64713;BME280;51140;45.340;5.980;2023-04-27T00:10:30;98234.63;;;10.82;100.00
64713;BME280;51140;45.340;5.980;2023-04-27T00:12:56;98244.91;;;10.85;100.00
64713;BME280;51140;45.340;5.980;2023-04-27T00:15:21;98240.75;;;10.63;100.00
64713;BME280;51140;45.340;5.980;2023-04-27T00:17:47;98236.91;;;10.36;100.00
64713;BME280;51140;45.340;5.980;2023-04-27T00:20:12;98245.97;;;10.46;100.00
64713;BME280;51140;45.340;5.980;2023-04-27T00:22:38;98238.31;;;10.60;100.00
64713;BME280;51140;45.340;5.980;2023-04-27T00:25:04;98234.47;;;10.67;100.00
64713;BME280;51140;45.340;5.980;2023-04-27T00:27:30;98245.25;;;10.94;100.00
64713;BME280;51140;45.340;5.980;2023-04-27T00:29:55;98242.38;;;10.83;100.00
64713;BME280;51140;45.340;5.980;2023-04-27T00:32:21;98237.09;;;10.85;100.00
64713;BME280;51140;45.340;5.980;2023-04-27T00:34:46;98234.28;;;11.05;100.00
64713;BME280;51140;45.340;5.980;2023-04-27T00:37:11;98236.97;;;11.04;100.00
64713;BME280;51140;45.340;5.980;2023-04-27T00:39:37;98232.22;;;10.94;100.00
64713;BME280;51140;45.340;5.980;2023-04-27T00:42:03;98229.97;;;11.04;100.00
64713;BME280;51140;45.340;5.980;2023-04-27T00:44:28;98237.84;;;11.20;100.00
64713;BME280;51140;45.340;5.980;2023-04-27T00:46:54;98235.13;;;11.06;100.00
64713;BME280;51140;45.340;5.980;2023-04-27T00:49:20;98236.00;;;10.89;100.00
64713;BME280;51140;45.340;5.980;2023-04-27T00:51:47;98232.31;;;10.93;100.00
64713;BME280;51140;45.340;5.980;2023-04-27T00:54:14;98230.50;;;10.60;100.00
64713;BME280;51140;45.340;5.980;2023-04-27T00:56:43;98232.81;;;10.49;100.00
64713;BME280;51140;45.340;5.980;2023-04-27T00:59:08;98225.44;;;10.23;100.00
64713;BME280;51140;45.340;5.980;2023-04-27T01:01:33;98221.44;;;10.33;100.00
64713;BME280;51140;45.340;5.980;2023-04-27T01:03:59;98218.13;;;9.93;100.00
64713;BME280;51140;45.340;5.980;2023-04-27T01:06:25;98223.44;;;10.28;100.00
64713;BME280;51140;45.340;5.980;2023-04-27T01:08:54;98225.84;;;10.50;100.00
64713;BME280;51140;45.340;5.980;2023-04-27T01:11:19;98221.25;;;10.01;100.00
64713;BME280;51140;45.340;5.980;2023-04-27T01:13:45;98213.56;;;9.98;100.00
64713;BME280;51140;45.340;5.980;2023-04-27T01:16:11;98228.53;;;10.12;100.00
64713;BME280;51140;45.340;5.980;2023-04-27T01:18:36;98213.63;;;10.33;100.00
64713;BME280;51140;45.340;5.980;2023-04-27T01:21:02;98216.75;;;10.74;100.00
64713;BME280;51140;45.340;5.980;2023-04-27T01:23:27;98221.38;;;10.69;100.00
64713;BME280;51140;45.340;5.980;2023-04-27T01:25:52;98222.69;;;10.43;100.00
64713;BME280;51140;45.340;5.980;2023-04-27T01:28:18;98215.56;;;10.47;100.00
64713;BME280;51140;45.340;5.980;2023-04-27T01:30:43;98215.59;;;10.11;100.00
64713;BME280;51140;45.340;5.980;2023-04-27T01:33:09;98211.28;;;9.73;100.00
64713;BME280;51140;45.340;5.980;2023-04-27T01:35:35;98207.31;;;10.02;100.00
64713;BME280;51140;45.340;5.980;2023-04-27T01:38:00;98209.19;;;10.35;100.00
64713;BME280;51140;45.340;5.980;2023-04-27T01:40:26;98213.63;;;10.67;100.00
64713;BME280;51140;45.340;5.980;2023-04-27T01:42:52;98215.13;;;10.20;100.00
64713;BME280;51140;45.340;5.980;2023-04-27T01:45:17;98214.38;;;9.82;100.00
64713;BME280;51140;45.340;5.980;2023-04-27T01:47:43;98214.91;;;9.88;100.00
64713;BME280;51140;45.340;5.980;2023-04-27T01:50:08;98223.28;;;10.31;100.00
64713;BME280;51140;45.340;5.980;2023-04-27T01:52:33;98225.53;;;10.56;100.00
64713;BME280;51140;45.340;5.980;2023-04-27T01:54:59;98228.25;;;9.99;100.00
64713;BME280;51140;45.340;5.980;2023-04-27T01:57:24;98232.53;;;10.00;100.00
64713;BME280;51140;45.340;5.980;2023-04-27T01:59:50;98232.19;;;10.08;100.00
64713;BME280;51140;45.340;5.980;2023-04-27T02:02:16;98236.00;;;10.01;100.00
64713;BME280;51140;45.340;5.980;2023-04-27T02:04:41;98235.13;;;10.00;100.00
64713;BME280;51140;45.340;5.980;2023-04-27T02:07:07;98243.22;;;10.13;100.00
64713;BME280;51140;45.340;5.980;2023-04-27T02:09:33;98241.59;;;10.29;100.00
64713;BME280;51140;45.340;5.980;2023-04-27T02:11:58;98253.41;;;10.18;100.00
64713;BME280;51140;45.340;5.980;2023-04-27T02:14:23;98254.69;;;10.28;100.00
64713;BME280;51140;45.340;5.980;2023-04-27T02:16:49;98254.47;;;9.78;100.00
64713;BME280;51140;45.340;5.980;2023-04-27T02:19:14;98246.72;;;9.57;100.00
64713;BME280;51140;45.340;5.980;2023-04-27T02:21:39;98246.59;;;9.41;100.00
64713;BME280;51140;45.340;5.980;2023-04-27T02:24:05;98238.28;;;9.52;100.00
64713;BME280;51140;45.340;5.980;2023-04-27T02:26:31;98243.22;;;9.39;100.00
64713;BME280;51140;45.340;5.980;2023-04-27T02:28:57;98233.09;;;9.33;100.00
64713;BME280;51140;45.340;5.980;2023-04-27T02:31:22;98233.66;;;9.40;100.00
64713;BME280;51140;45.340;5.980;2023-04-27T02:33:47;98232.53;;;9.46;100.00
64713;BME280;51140;45.340;5.980;2023-04-27T02:36:13;98238.16;;;9.36;100.00
64713;BME280;51140;45.340;5.980;2023-04-27T02:38:38;98231.81;;;9.23;100.00
64713;BME280;51140;45.340;5.980;2023-04-27T02:41:04;98234.63;;;9.37;100.00
64713;BME280;51140;45.340;5.980;2023-04-27T02:43:29;98233.34;;;9.08;100.00
64713;BME280;51140;45.340;5.980;2023-04-27T02:45:54;98231.16;;;9.18;100.00
64713;BME280;51140;45.340;5.980;2023-04-27T02:48:20;98229.47;;;9.17;100.00
64713;BME280;51140;45.340;5.980;2023-04-27T02:50:45;98222.34;;;9.22;100.00
64713;BME280;51140;45.340;5.980;2023-04-27T02:53:11;98230.91;;;9.24;100.00
64713;BME280;51140;45.340;5.980;2023-04-27T02:55:37;98229.06;;;9.07;100.00
64713;BME280;51140;45.340;5.980;2023-04-27T02:58:02;98226.81;;;9.19;100.00
64713;BME280;51140;45.340;5.980;2023-04-27T03:00:28;98230.34;;;9.36;100.00
64713;BME280;51140;45.340;5.980;2023-04-27T03:02:54;98241.53;;;9.38;100.00
64713;BME280;51140;45.340;5.980;2023-04-27T03:05:20;98246.38;;;9.27;100.00
64713;BME280;51140;45.340;5.980;2023-04-27T03:07:45;98243.00;;;9.25;100.00
64713;BME280;51140;45.340;5.980;2023-04-27T03:10:10;98248.44;;;9.19;100.00
64713;BME280;51140;45.340;5.980;2023-04-27T03:12:36;98249.84;;;9.07;100.00
64713;BME280;51140;45.340;5.980;2023-04-27T03:15:02;98241.91;;;9.10;100.00
64713;BME280;51140;45.340;5.980;2023-04-27T03:17:28;98239.72;;;9.20;100.00
64713;BME280;51140;45.340;5.980;2023-04-27T03:19:53;98229.69;;;9.13;100.00
64713;BME280;51140;45.340;5.980;2023-04-27T03:22:19;98230.38;;;9.16;100.00
64713;BME280;51140;45.340;5.980;2023-04-27T03:24:45;98227.00;;;9.14;100.00
64713;BME280;51140;45.340;5.980;2023-04-27T03:27:10;98231.22;;;9.17;100.00
64713;BME280;51140;45.340;5.980;2023-04-27T03:29:36;98219.84;;;9.19;100.00
64713;BME280;51140;45.340;5.980;2023-04-27T03:32:02;98220.34;;;9.08;100.00
64713;BME280;51140;45.340;5.980;2023-04-27T03:34:30;98223.00;;;9.07;100.00
64713;BME280;51140;45.340;5.980;2023-04-27T03:36:56;98215.50;;;9.20;100.00
64713;BME280;51140;45.340;5.980;2023-04-27T03:39:21;98211.88;;;9.24;100.00
64713;BME280;51140;45.340;5.980;2023-04-27T03:41:47;98214.94;;;9.13;100.00
64713;BME280;51140;45.340;5.980;2023-04-27T03:44:12;98219.09;;;9.17;100.00
64713;BME280;51140;45.340;5.980;2023-04-27T03:46:38;98229.47;;;9.17;100.00
64713;BME280;51140;45.340;5.980;2023-04-27T03:49:03;98223.88;;;9.26;100.00
64713;BME280;51140;45.340;5.980;2023-04-27T03:51:29;98236.03;;;9.45;100.00
64713;BME280;51140;45.340;5.980;2023-04-27T03:53:56;98233.19;;;9.11;100.00
64713;BME280;51140;45.340;5.980;2023-04-27T03:56:22;98221.50;;;8.83;100.00
64713;BME280;51140;45.340;5.980;2023-04-27T03:58:47;98209.44;;;8.61;100.00
64713;BME280;51140;45.340;5.980;2023-04-27T04:01:12;98198.00;;;8.65;100.00
64713;BME280;51140;45.340;5.980;2023-04-27T04:03:39;98189.13;;;8.51;100.00
64713;BME280;51140;45.340;5.980;2023-04-27T04:06:04;98185.88;;;8.24;100.00
64713;BME280;51140;45.340;5.980;2023-04-27T04:08:30;98180.56;;;8.27;100.00
64713;BME280;51140;45.340;5.980;2023-04-27T04:10:57;98174.88;;;8.39;100.00
64713;BME280;51140;45.340;5.980;2023-04-27T04:13:22;98177.56;;;8.58;100.00
64713;BME280;51140;45.340;5.980;2023-04-27T04:15:47;98167.63;;;8.47;100.00
64713;BME280;51140;45.340;5.980;2023-04-27T04:18:13;98167.59;;;8.27;100.00
64713;BME280;51140;45.340;5.980;2023-04-27T04:20:38;98146.91;;;8.25;100.00
64713;BME280;51140;45.340;5.980;2023-04-27T04:23:03;98144.25;;;8.06;100.00
64713;BME280;51140;45.340;5.980;2023-04-27T04:25:29;98151.38;;;8.01;100.00
64713;BME280;51140;45.340;5.980;2023-04-27T04:27:56;98145.66;;;8.13;100.00
64713;BME280;51140;45.340;5.980;2023-04-27T04:30:22;98145.63;;;7.93;100.00
64713;BME280;51140;45.340;5.980;2023-04-27T04:32:47;98143.97;;;8.12;100.00
64713;BME280;51140;45.340;5.980;2023-04-27T04:35:13;98149.78;;;8.39;100.00
64713;BME280;51140;45.340;5.980;2023-04-27T04:37:42;98151.94;;;8.50;100.00
64713;BME280;51140;45.340;5.980;2023-04-27T04:40:07;98161.00;;;8.40;100.00
64713;BME280;51140;45.340;5.980;2023-04-27T04:42:35;98149.28;;;8.30;100.00
64713;BME280;51140;45.340;5.980;2023-04-27T04:45:02;98152.53;;;8.14;100.00
64713;BME280;51140;45.340;5.980;2023-04-27T04:47:28;98153.47;;;8.34;100.00
64713;BME280;51140;45.340;5.980;2023-04-27T04:49:56;98151.13;;;8.07;100.00
64713;BME280;51140;45.340;5.980;2023-04-27T04:52:21;98154.50;;;8.09;100.00
64713;BME280;51140;45.340;5.980;2023-04-27T04:54:46;98158.06;;;8.07;100.00
64713;BME280;51140;45.340;5.980;2023-04-27T04:57:12;98151.63;;;8.15;100.00
64713;BME280;51140;45.340;5.980;2023-04-27T04:59:37;98163.84;;;8.13;100.00
64713;BME280;51140;45.340;5.980;2023-04-27T05:02:02;98148.09;;;7.96;100.00
64713;BME280;51140;45.340;5.980;2023-04-27T05:04:28;98147.06;;;8.00;100.00
64713;BME280;51140;45.340;5.980;2023-04-27T05:06:53;98134.31;;;8.16;100.00
64713;BME280;51140;45.340;5.980;2023-04-27T05:09:19;98142.09;;;8.16;100.00
64713;BME280;51140;45.340;5.980;2023-04-27T05:11:44;98144.75;;;8.14;100.00
64713;BME280;51140;45.340;5.980;2023-04-27T05:14:09;98146.78;;;8.08;100.00
64713;BME280;51140;45.340;5.980;2023-04-27T05:16:35;98139.44;;;8.17;100.00
64713;BME280;51140;45.340;5.980;2023-04-27T05:19:00;98154.16;;;8.17;100.00
64713;BME280;51140;45.340;5.980;2023-04-27T05:21:25;98146.31;;;8.18;100.00
64713;BME280;51140;45.340;5.980;2023-04-27T05:23:51;98159.28;;;8.18;100.00
64713;BME280;51140;45.340;5.980;2023-04-27T05:26:17;98158.38;;;8.20;100.00
64713;BME280;51140;45.340;5.980;2023-04-27T05:28:43;98166.75;;;8.06;100.00
64713;BME280;51140;45.340;5.980;2023-04-27T05:31:09;98166.75;;;8.06;100.00
64713;BME280;51140;45.340;5.980;2023-04-27T05:33:34;98170.72;;;8.14;100.00
64713;BME280;51140;45.340;5.980;2023-04-27T05:36:00;98164.53;;;8.17;100.00
64713;BME280;51140;45.340;5.980;2023-04-27T05:38:25;98164.34;;;8.22;100.00
64713;BME280;51140;45.340;5.980;2023-04-27T05:40:54;98165.66;;;8.11;100.00
64713;BME280;51140;45.340;5.980;2023-04-27T05:43:21;98164.81;;;8.11;100.00
64713;BME280;51140;45.340;5.980;2023-04-27T05:45:46;98156.88;;;8.14;100.00
64713;BME280;51140;45.340;5.980;2023-04-27T05:48:11;98154.22;;;8.15;100.00
64713;BME280;51140;45.340;5.980;2023-04-27T05:50:38;98156.81;;;8.15;100.00
64713;BME280;51140;45.340;5.980;2023-04-27T05:53:03;98168.31;;;8.30;100.00
64713;BME280;51140;45.340;5.980;2023-04-27T05:55:30;98175.31;;;8.28;100.00
64713;BME280;51140;45.340;5.980;2023-04-27T05:57:55;98181.59;;;8.23;100.00
64713;BME280;51140;45.340;5.980;2023-04-27T06:00:21;98175.06;;;8.14;100.00
64713;BME280;51140;45.340;5.980;2023-04-27T06:02:47;98170.91;;;8.10;100.00
64713;BME280;51140;45.340;5.980;2023-04-27T06:05:12;98170.06;;;8.30;100.00
64713;BME280;51140;45.340;5.980;2023-04-27T06:07:38;98164.03;;;8.29;100.00
64713;BME280;51140;45.340;5.980;2023-04-27T06:10:04;98170.72;;;8.35;100.00
64713;BME280;51140;45.340;5.980;2023-04-27T06:12:30;98181.97;;;8.35;100.00
64713;BME280;51140;45.340;5.980;2023-04-27T06:14:55;98178.31;;;8.39;100.00
64713;BME280;51140;45.340;5.980;2023-04-27T06:17:21;98172.72;;;8.08;100.00
64713;BME280;51140;45.340;5.980;2023-04-27T06:19:46;98172.66;;;8.09;100.00
64713;BME280;51140;45.340;5.980;2023-04-27T06:22:12;98178.22;;;8.21;100.00
64713;BME280;51140;45.340;5.980;2023-04-27T06:24:37;98189.38;;;8.44;100.00
64713;BME280;51140;45.340;5.980;2023-04-27T06:27:02;98196.06;;;8.50;100.00
64713;BME280;51140;45.340;5.980;2023-04-27T06:29:28;98192.34;;;8.56;100.00
64713;BME280;51140;45.340;5.980;2023-04-27T06:31:53;98198.41;;;8.56;100.00
64713;BME280;51140;45.340;5.980;2023-04-27T06:34:19;98205.78;;;8.65;100.00
64713;BME280;51140;45.340;5.980;2023-04-27T06:36:44;98207.75;;;8.60;100.00
64713;BME280;51140;45.340;5.980;2023-04-27T06:39:09;98210.25;;;8.62;100.00
64713;BME280;51140;45.340;5.980;2023-04-27T06:41:35;98216.69;;;8.73;100.00
64713;BME280;51140;45.340;5.980;2023-04-27T06:44:00;98227.84;;;8.75;100.00
64713;BME280;51140;45.340;5.980;2023-04-27T06:46:26;98231.28;;;8.96;100.00
64713;BME280;51140;45.340;5.980;2023-04-27T06:48:51;98258.97;;;9.16;100.00
64713;BME280;51140;45.340;5.980;2023-04-27T06:51:17;98276.44;;;9.33;100.00
64713;BME280;51140;45.340;5.980;2023-04-27T06:53:42;98289.84;;;9.63;100.00
64713;BME280;51140;45.340;5.980;2023-04-27T06:56:09;98306.16;;;9.66;100.00
64713;BME280;51140;45.340;5.980;2023-04-27T06:58:35;98307.19;;;9.81;100.00
64713;BME280;51140;45.340;5.980;2023-04-27T07:01:02;98302.78;;;9.64;100.00
64713;BME280;51140;45.340;5.980;2023-04-27T07:03:28;98302.84;;;9.63;100.00
64713;BME280;51140;45.340;5.980;2023-04-27T07:05:53;98310.75;;;9.60;100.00
64713;BME280;51140;45.340;5.980;2023-04-27T07:08:20;98312.81;;;9.72;100.00
64713;BME280;51140;45.340;5.980;2023-04-27T07:10:46;98327.22;;;9.98;100.00
64713;BME280;51140;45.340;5.980;2023-04-27T07:13:11;98322.22;;;10.12;100.00
64713;BME280;51140;45.340;5.980;2023-04-27T07:15:36;98318.41;;;10.00;100.00
64713;BME280;51140;45.340;5.980;2023-04-27T07:18:02;98306.69;;;10.11;100.00
64713;BME280;51140;45.340;5.980;2023-04-27T07:20:28;98284.41;;;10.05;100.00
64713;BME280;51140;45.340;5.980;2023-04-27T07:22:53;98278.81;;;10.13;100.00
64713;BME280;51140;45.340;5.980;2023-04-27T07:25:19;98274.13;;;10.21;100.00
64713;BME280;51140;45.340;5.980;2023-04-27T07:27:45;98276.75;;;10.38;100.00
64713;BME280;51140;45.340;5.980;2023-04-27T07:30:11;98264.03;;;10.32;100.00
64713;BME280;51140;45.340;5.980;2023-04-27T07:32:40;98267.28;;;10.18;100.00
64713;BME280;51140;45.340;5.980;2023-04-27T07:35:07;98274.78;;;10.43;100.00
64713;BME280;51140;45.340;5.980;2023-04-27T07:37:36;98278.75;;;10.67;100.00
64713;BME280;51140;45.340;5.980;2023-04-27T07:40:03;98284.84;;;11.18;100.00
64713;BME280;51140;45.340;5.980;2023-04-27T07:42:36;98298.16;;;10.79;100.00
64713;BME280;51140;45.340;5.980;2023-04-27T07:45:02;98295.44;;;11.15;100.00
64713;BME280;51140;45.340;5.980;2023-04-27T07:47:28;98300.91;;;10.93;100.00
64713;BME280;51140;45.340;5.980;2023-04-27T07:49:53;98292.09;;;10.79;100.00
64713;BME280;51140;45.340;5.980;2023-04-27T07:52:20;98278.94;;;10.82;100.00
64713;BME280;51140;45.340;5.980;2023-04-27T07:54:45;98282.97;;;11.05;100.00
64713;BME280;51140;45.340;5.980;2023-04-27T07:57:11;98268.34;;;11.35;100.00
64713;BME280;51140;45.340;5.980;2023-04-27T07:59:37;98271.03;;;11.49;100.00
64713;BME280;51140;45.340;5.980;2023-04-27T08:02:02;98248.41;;;12.44;100.00
64713;BME280;51140;45.340;5.980;2023-04-27T08:04:28;98257.06;;;12.75;100.00
64713;BME280;51140;45.340;5.980;2023-04-27T08:06:53;98225.81;;;14.14;100.00
64713;BME280;51140;45.340;5.980;2023-04-27T08:09:18;98179.13;;;17.25;100.00
64713;BME280;51140;45.340;5.980;2023-04-27T08:11:44;98145.72;;;19.36;100.00
64713;BME280;51140;45.340;5.980;2023-04-27T08:14:10;98129.91;;;21.65;100.00
64713;BME280;51140;45.340;5.980;2023-04-27T08:16:39;98117.47;;;21.83;100.00
64713;BME280;51140;45.340;5.980;2023-04-27T08:19:05;98116.16;;;23.44;100.00
64713;BME280;51140;45.340;5.980;2023-04-27T08:21:31;98136.06;;;23.66;100.00
64713;BME280;51140;45.340;5.980;2023-04-27T08:23:56;98100.19;;;26.47;100.00
64713;BME280;51140;45.340;5.980;2023-04-27T08:26:22;98121.28;;;25.10;100.00
64713;BME280;51140;45.340;5.980;2023-04-27T08:28:47;98119.88;;;25.61;100.00
64713;BME280;51140;45.340;5.980;2023-04-27T08:31:14;98123.66;;;25.83;100.00
64713;BME280;51140;45.340;5.980;2023-04-27T08:33:39;98108.09;;;27.08;100.00
64713;BME280;51140;45.340;5.980;2023-04-27T08:36:06;98090.75;;;27.33;100.00
64713;BME280;51140;45.340;5.980;2023-04-27T08:38:33;98086.13;;;27.42;100.00
64713;BME280;51140;45.340;5.980;2023-04-27T08:40:59;98087.97;;;26.97;100.00
64713;BME280;51140;45.340;5.980;2023-04-27T08:43:24;98075.09;;;28.45;100.00
64713;BME280;51140;45.340;5.980;2023-04-27T08:45:50;98065.72;;;28.13;100.00
64713;BME280;51140;45.340;5.980;2023-04-27T08:48:17;98091.50;;;26.98;100.00
64713;BME280;51140;45.340;5.980;2023-04-27T08:50:43;98063.69;;;28.64;100.00
64713;BME280;51140;45.340;5.980;2023-04-27T08:53:18;98037.69;;;30.21;100.00
64713;BME280;51140;45.340;5.980;2023-04-27T08:55:45;98070.41;;;27.54;100.00
64713;BME280;51140;45.340;5.980;2023-04-27T08:58:11;98047.03;;;27.98;99.11
64713;BME280;51140;45.340;5.980;2023-04-27T09:00:38;98050.44;;;28.56;100.00
64713;BME280;51140;45.340;5.980;2023-04-27T09:03:17;98050.88;;;27.68;100.00
64713;BME280;51140;45.340;5.980;2023-04-27T09:05:45;98055.53;;;27.81;100.00
64713;BME280;51140;45.340;5.980;2023-04-27T09:08:11;98020.84;;;29.60;94.20
64713;BME280;51140;45.340;5.980;2023-04-27T09:10:49;98040.63;;;28.70;97.91
64713;BME280;51140;45.340;5.980;2023-04-27T09:13:16;98050.88;;;28.60;100.00
64713;BME280;51140;45.340;5.980;2023-04-27T09:15:42;98042.03;;;28.66;97.56
64713;BME280;51140;45.340;5.980;2023-04-27T09:18:14;98036.78;;;29.75;92.00
64713;BME280;51140;45.340;5.980;2023-04-27T09:20:50;98046.06;;;29.18;95.26
64713;BME280;51140;45.340;5.980;2023-04-27T09:23:42;97987.38;;;33.44;87.53
64713;BME280;51140;45.340;5.980;2023-04-27T09:26:21;98003.97;;;33.11;91.63
64713;BME280;51140;45.340;5.980;2023-04-27T09:28:50;98032.72;;;30.32;85.51
64713;BME280;51140;45.340;5.980;2023-04-27T09:31:16;97996.63;;;33.36;91.16
64713;BME280;51140;45.340;5.980;2023-04-27T09:33:43;98002.78;;;31.12;82.36
64713;BME280;51140;45.340;5.980;2023-04-27T09:36:10;98028.50;;;29.15;89.98
64713;BME280;51140;45.340;5.980;2023-04-27T09:38:36;98037.53;;;29.01;91.63
64713;BME280;51140;45.340;5.980;2023-04-27T09:41:01;98018.59;;;31.47;96.40
64713;BME280;51140;45.340;5.980;2023-04-27T09:43:27;98002.16;;;31.62;86.46
64713;BME280;51140;45.340;5.980;2023-04-27T09:45:54;98000.78;;;31.46;82.46
64713;BME280;51140;45.340;5.980;2023-04-27T09:48:21;97977.13;;;34.06;78.76
64713;BME280;51140;45.340;5.980;2023-04-27T09:50:49;97976.63;;;33.85;75.52
64713;BME280;51140;45.340;5.980;2023-04-27T09:53:17;98003.56;;;32.70;84.33
64713;BME280;51140;45.340;5.980;2023-04-27T10:01:40;98036.84;;;30.67;89.76
64713;BME280;51140;45.340;5.980;2023-04-27T10:07:04;98074.47;;;26.99;99.39
64713;BME280;51140;45.340;5.980;2023-04-27T10:09:43;98084.97;;;25.48;100.00
64713;BME280;51140;45.340;5.980;2023-04-27T10:12:18;98111.44;;;23.22;100.00
64713;BME280;51140;45.340;5.980;2023-04-27T10:14:49;98116.63;;;23.74;100.00
64713;BME280;51140;45.340;5.980;2023-04-27T10:17:15;98100.34;;;23.93;100.00
64713;BME280;51140;45.340;5.980;2023-04-27T10:19:52;98107.22;;;23.54;100.00
64713;BME280;51140;45.340;5.980;2023-04-27T10:22:19;98090.75;;;24.33;100.00
64713;BME280;51140;45.340;5.980;2023-04-27T10:24:48;98085.09;;;24.36;100.00
64713;BME280;51140;45.340;5.980;2023-04-27T10:27:17;98092.56;;;24.16;100.00
64713;BME280;51140;45.340;5.980;2023-04-27T10:29:45;98094.81;;;23.62;100.00
64713;BME280;51140;45.340;5.980;2023-04-27T10:32:24;98092.91;;;23.47;100.00
64713;BME280;51140;45.340;5.980;2023-04-27T10:34:51;98108.72;;;23.14;100.00
64713;BME280;51140;45.340;5.980;2023-04-27T10:37:40;98074.34;;;24.93;100.00
64713;BME280;51140;45.340;5.980;2023-04-27T10:40:08;98075.47;;;25.07;100.00
64713;BME280;51140;45.340;5.980;2023-04-27T10:42:41;98074.59;;;24.02;100.00
64713;BME280;51140;45.340;5.980;2023-04-27T10:45:07;98083.75;;;24.48;100.00
64713;BME280;51140;45.340;5.980;2023-04-27T10:47:38;98079.59;;;25.17;100.00
64713;BME280;51140;45.340;5.980;2023-04-27T10:50:04;98067.84;;;25.04;100.00
64713;BME280;51140;45.340;5.980;2023-04-27T10:52:30;98072.34;;;24.95;100.00
64713;BME280;51140;45.340;5.980;2023-04-27T10:54:56;98055.50;;;25.03;100.00
64713;BME280;51140;45.340;5.980;2023-04-27T10:57:22;98059.28;;;23.80;100.00
64713;BME280;51140;45.340;5.980;2023-04-27T10:59:49;98067.09;;;23.89;100.00
64713;BME280;51140;45.340;5.980;2023-04-27T11:02:15;98061.09;;;25.24;100.00
64713;BME280;51140;45.340;5.980;2023-04-27T11:04:41;98063.50;;;24.94;100.00
64713;BME280;51140;45.340;5.980;2023-04-27T11:07:07;98053.63;;;23.99;100.00
64713;BME280;51140;45.340;5.980;2023-04-27T11:09:37;98082.31;;;22.35;100.00
64713;BME280;51140;45.340;5.980;2023-04-27T11:12:07;98074.22;;;23.64;100.00
64713;BME280;51140;45.340;5.980;2023-04-27T11:14:35;98074.06;;;23.98;100.00
64713;BME280;51140;45.340;5.980;2023-04-27T11:17:02;98072.13;;;22.74;100.00
64713;BME280;51140;45.340;5.980;2023-04-27T11:19:28;98085.31;;;22.14;100.00
64713;BME280;51140;45.340;5.980;2023-04-27T11:22:05;98080.50;;;22.35;100.00
64713;BME280;51140;45.340;5.980;2023-04-27T11:24:31;98071.09;;;23.27;100.00
64713;BME280;51140;45.340;5.980;2023-04-27T11:26:57;98044.91;;;23.56;100.00
64713;BME280;51140;45.340;5.980;2023-04-27T11:29:22;98042.41;;;23.55;100.00
64713;BME280;51140;45.340;5.980;2023-04-27T11:31:49;98053.34;;;23.35;100.00
64713;BME280;51140;45.340;5.980;2023-04-27T11:34:20;98068.84;;;22.28;100.00
64713;BME280;51140;45.340;5.980;2023-04-27T11:37:07;98068.53;;;22.31;100.00
64713;BME280;51140;45.340;5.980;2023-04-27T11:39:35;98059.66;;;22.74;100.00
64713;BME280;51140;45.340;5.980;2023-04-27T11:42:20;98066.66;;;22.75;100.00
64713;BME280;51140;45.340;5.980;2023-04-27T11:45:10;98050.78;;;22.32;100.00
64713;BME280;51140;45.340;5.980;2023-04-27T11:47:35;98053.41;;;22.49;100.00
64713;BME280;51140;45.340;5.980;2023-04-27T11:50:04;98039.91;;;22.69;100.00
64713;BME280;51140;45.340;5.980;2023-04-27T11:52:31;98040.38;;;23.40;100.00
64713;BME280;51140;45.340;5.980;2023-04-27T11:54:58;98028.34;;;23.62;100.00
64713;BME280;51140;45.340;5.980;2023-04-27T11:57:25;98043.63;;;23.68;100.00
64713;BME280;51140;45.340;5.980;2023-04-27T11:59:52;98054.31;;;23.34;100.00
64713;BME280;51140;45.340;5.980;2023-04-27T12:02:17;98028.22;;;23.30;100.00
64713;BME280;51140;45.340;5.980;2023-04-27T12:04:43;98032.97;;;23.60;100.00
64713;BME280;51140;45.340;5.980;2023-04-27T12:07:08;98022.03;;;23.71;100.00
64713;BME280;51140;45.340;5.980;2023-04-27T12:09:34;98020.03;;;23.90;100.00
64713;BME280;51140;45.340;5.980;2023-04-27T12:11:59;98009.53;;;23.56;100.00
64713;BME280;51140;45.340;5.980;2023-04-27T12:14:26;98020.50;;;23.61;100.00
64713;BME280;51140;45.340;5.980;2023-04-27T12:16:52;98024.47;;;22.98;100.00
64713;BME280;51140;45.340;5.980;2023-04-27T12:19:17;98035.31;;;23.21;100.00
64713;BME280;51140;45.340;5.980;2023-04-27T12:21:42;98031.81;;;23.12;100.00
64713;BME280;51140;45.340;5.980;2023-04-27T12:24:08;98028.75;;;22.39;100.00
64713;BME280;51140;45.340;5.980;2023-04-27T12:26:33;98046.75;;;23.05;100.00
64713;BME280;51140;45.340;5.980;2023-04-27T12:28:59;98045.72;;;22.20;100.00
64713;BME280;51140;45.340;5.980;2023-04-27T12:31:25;98027.72;;;22.32;100.00
64713;BME280;51140;45.340;5.980;2023-04-27T12:33:50;98047.38;;;22.99;100.00
64713;BME280;51140;45.340;5.980;2023-04-27T12:36:16;98027.28;;;22.97;100.00
64713;BME280;51140;45.340;5.980;2023-04-27T12:38:42;98035.19;;;22.55;100.00
64713;BME280;51140;45.340;5.980;2023-04-27T12:41:07;98046.03;;;22.69;100.00
64713;BME280;51140;45.340;5.980;2023-04-27T12:43:33;98025.81;;;23.02;100.00
64713;BME280;51140;45.340;5.980;2023-04-27T12:46:00;98043.69;;;23.26;100.00
64713;BME280;51140;45.340;5.980;2023-04-27T12:48:26;98014.97;;;23.38;100.00
64713;BME280;51140;45.340;5.980;2023-04-27T12:50:51;98029.69;;;23.66;100.00
64713;BME280;51140;45.340;5.980;2023-04-27T12:53:16;98025.78;;;23.44;100.00
64713;BME280;51140;45.340;5.980;2023-04-27T12:55:42;98025.78;;;23.53;100.00
64713;BME280;51140;45.340;5.980;2023-04-27T12:58:07;98028.22;;;23.22;100.00
64713;BME280;51140;45.340;5.980;2023-04-27T13:00:33;98020.78;;;23.50;100.00